createdAt,value
2018-08-10T00:00:45.813Z,20.90
2018-08-10T00:03:14.461Z,20.90
2018-08-10T00:05:43.185Z,20.80
2018-08-10T00:08:11.893Z,20.90
2018-08-10T00:10:40.511Z,20.80
2018-08-10T00:13:09.126Z,20.70
2018-08-10T00:15:37.722Z,20.60
2018-08-10T00:18:06.414Z,20.60
2018-08-10T00:20:35.065Z,20.80
2018-08-10T00:23:03.739Z,20.70
2018-08-10T00:25:32.305Z,20.70
2018-08-10T00:28:00.964Z,20.60
2018-08-10T00:30:29.670Z,20.50
2018-08-10T00:32:58.293Z,20.60
2018-08-10T00:35:26.953Z,20.70
2018-08-10T00:37:55.545Z,20.70
2018-08-10T00:40:24.477Z,20.50
2018-08-10T00:42:53.149Z,20.40
2018-08-10T00:45:21.732Z,20.40
2018-08-10T00:47:50.361Z,20.40
2018-08-10T00:50:19.165Z,20.40
2018-08-10T00:52:48.385Z,20.50
2018-08-10T00:55:18.100Z,20.60
2018-08-10T00:57:47.230Z,20.50
2018-08-10T01:00:21.017Z,20.50
2018-08-10T01:02:49.924Z,20.50
2018-08-10T01:05:18.651Z,20.50
2018-08-10T01:07:47.260Z,20.10
2018-08-10T01:10:17.387Z,20.10
2018-08-10T01:12:45.973Z,20.10
2018-08-10T01:15:15.773Z,20.10
2018-08-10T01:17:44.872Z,20.00
2018-08-10T01:20:16.369Z,19.80
2018-08-10T01:22:49.180Z,19.80
2018-08-10T01:25:19.008Z,19.90
2018-08-10T01:27:52.920Z,19.80
2018-08-10T01:30:21.625Z,19.70
2018-08-10T01:32:51.009Z,19.80
2018-08-10T01:35:19.680Z,19.70
2018-08-10T01:37:48.305Z,19.80
2018-08-10T01:40:17.553Z,19.60
2018-08-10T01:42:46.145Z,19.60
2018-08-10T01:45:14.841Z,19.40
2018-08-10T01:47:43.495Z,19.50
2018-08-10T01:50:12.124Z,19.40
2018-08-10T01:52:40.701Z,19.40
2018-08-10T01:55:09.917Z,19.40
2018-08-10T01:57:39.102Z,19.20
2018-08-10T02:00:08.252Z,19.30
2018-08-10T02:02:37.157Z,19.20
2018-08-10T02:05:07.456Z,19.10
2018-08-10T02:07:37.821Z,19.10
2018-08-10T02:10:07.957Z,19.10
2018-08-10T02:12:36.649Z,19.10
2018-08-10T02:15:07.421Z,19.20
2018-08-10T02:17:36.041Z,19.00
2018-08-10T02:20:05.015Z,19.10
2018-08-10T02:22:33.609Z,19.10
2018-08-10T02:25:02.181Z,18.90
2018-08-10T02:27:30.804Z,18.90
2018-08-10T02:29:59.418Z,19.00
2018-08-10T02:32:28.053Z,18.80
2018-08-10T02:34:56.615Z,18.90
2018-08-10T02:37:25.732Z,18.90
2018-08-10T02:39:54.292Z,19.00
2018-08-10T02:42:22.914Z,19.00
2018-08-10T02:44:51.480Z,19.00
2018-08-10T02:47:23.880Z,19.00
2018-08-10T02:49:54.105Z,19.00
2018-08-10T02:52:23.197Z,19.00
2018-08-10T02:54:52.038Z,19.00
2018-08-10T02:57:20.654Z,19.00
2018-08-10T02:59:49.287Z,18.80
2018-08-10T03:02:18.122Z,18.90
2018-08-10T03:04:46.757Z,18.70
2018-08-10T03:07:15.454Z,18.80
2018-08-10T03:09:44.170Z,18.60
2018-08-10T03:12:13.476Z,18.60
2018-08-10T03:14:42.593Z,18.70
2018-08-10T03:17:11.549Z,18.70
2018-08-10T03:19:40.135Z,18.60
2018-08-10T03:22:08.928Z,18.30
2018-08-10T03:24:37.766Z,18.00
2018-08-10T03:27:07.130Z,18.20
2018-08-10T03:29:36.210Z,18.10
2018-08-10T03:32:05.021Z,18.00
2018-08-10T03:34:33.652Z,17.90
2018-08-10T03:37:02.388Z,17.70
2018-08-10T03:39:30.973Z,17.60
2018-08-10T03:41:59.566Z,17.50
2018-08-10T03:44:28.171Z,17.60
2018-08-10T03:46:56.849Z,17.50
2018-08-10T03:49:25.468Z,17.40
2018-08-10T03:51:54.157Z,17.20
2018-08-10T03:54:22.767Z,17.20
2018-08-10T03:56:51.361Z,17.10
2018-08-10T03:59:20.016Z,16.90
2018-08-10T04:01:48.665Z,16.80
2018-08-10T04:04:17.284Z,16.70
2018-08-10T04:06:45.900Z,16.50
2018-08-10T04:09:14.502Z,16.40
2018-08-10T04:11:43.541Z,16.10
2018-08-10T04:14:12.173Z,16.00
2018-08-10T04:16:40.753Z,16.00
2018-08-10T04:19:09.349Z,16.10
2018-08-10T04:21:37.921Z,16.10
2018-08-10T04:24:06.589Z,16.20
2018-08-10T04:26:35.182Z,16.20
2018-08-10T04:29:03.901Z,16.20
2018-08-10T04:31:32.477Z,16.10
2018-08-10T04:34:01.061Z,16.10
2018-08-10T04:36:29.658Z,16.20
2018-08-10T04:38:58.295Z,16.20
2018-08-10T04:41:26.892Z,16.30
2018-08-10T04:43:55.516Z,16.40
2018-08-10T04:46:24.089Z,16.50
2018-08-10T04:48:52.698Z,16.60
2018-08-10T04:51:21.289Z,16.60
2018-08-10T04:53:49.889Z,16.50
2018-08-10T04:56:18.466Z,16.60
2018-08-10T04:58:47.079Z,16.60
2018-08-10T05:01:15.662Z,16.60
2018-08-10T05:03:44.354Z,16.60
2018-08-10T05:06:12.969Z,16.50
2018-08-10T05:08:41.540Z,16.50
2018-08-10T05:11:10.145Z,16.50
2018-08-10T05:13:39.386Z,16.60
2018-08-10T05:16:08.250Z,16.60
2018-08-10T05:18:37.145Z,16.80
2018-08-10T05:21:05.889Z,17.00
2018-08-10T05:23:34.518Z,17.10
2018-08-10T05:26:03.482Z,17.40
2018-08-10T05:28:32.298Z,17.40
2018-08-10T05:31:01.228Z,17.40
2018-08-10T05:33:29.824Z,17.60
2018-08-10T05:35:58.430Z,17.60
2018-08-10T05:38:27.350Z,17.70
2018-08-10T05:40:56.602Z,17.60
2018-08-10T05:43:25.393Z,17.70
2018-08-10T05:45:53.982Z,17.80
2018-08-10T05:48:22.706Z,17.60
2018-08-10T05:50:51.332Z,17.60
2018-08-10T05:53:19.905Z,17.50
2018-08-10T05:55:48.502Z,17.50
2018-08-10T05:58:17.065Z,17.60
2018-08-10T06:00:45.681Z,17.60
2018-08-10T06:03:14.302Z,17.80
2018-08-10T06:05:42.880Z,18.10
2018-08-10T06:08:11.459Z,18.20
2018-08-10T06:10:40.054Z,18.30
2018-08-10T06:13:08.698Z,18.40
2018-08-10T06:15:37.311Z,18.40
2018-08-10T06:18:05.918Z,18.30
2018-08-10T06:20:34.552Z,18.20
2018-08-10T06:23:03.145Z,18.50
2018-08-10T06:25:31.737Z,18.50
2018-08-10T06:28:00.323Z,18.40
2018-08-10T06:30:28.984Z,18.80
2018-08-10T06:32:57.559Z,18.70
2018-08-10T06:35:26.137Z,18.80
2018-08-10T06:37:54.733Z,18.80
2018-08-10T06:40:23.301Z,19.00
2018-08-10T06:42:51.886Z,19.50
2018-08-10T06:45:20.481Z,20.00
2018-08-10T06:47:49.068Z,20.40
2018-08-10T06:50:17.760Z,21.10
2018-08-10T06:52:46.261Z,21.10
2018-08-10T06:55:16.833Z,21.50
2018-08-10T06:57:47.384Z,22.70
2018-08-10T07:00:17.352Z,22.80
2018-08-10T07:02:46.516Z,23.20
2018-08-10T07:05:15.086Z,22.80
2018-08-10T07:07:43.832Z,23.40
2018-08-10T07:10:12.397Z,23.40
2018-08-10T07:12:40.979Z,23.40
2018-08-10T07:15:09.549Z,23.60
2018-08-10T07:17:38.129Z,23.70
2018-08-10T07:20:07.304Z,24.00
2018-08-10T07:22:35.897Z,24.40
2018-08-10T07:25:04.688Z,24.50
2018-08-10T07:27:33.343Z,24.40
2018-08-10T07:30:01.943Z,25.30
2018-08-10T07:32:30.547Z,26.00
2018-08-10T07:34:59.163Z,26.40
2018-08-10T07:37:27.762Z,26.20
2018-08-10T07:39:58.044Z,26.50
2018-08-10T07:42:26.633Z,26.80
2018-08-10T07:44:55.219Z,27.10
2018-08-10T07:47:23.805Z,27.20
2018-08-10T07:49:52.371Z,27.50
2018-08-10T07:52:21.038Z,27.50
2018-08-10T07:54:49.550Z,28.00
2018-08-10T07:57:18.137Z,27.80
2018-08-10T07:59:46.702Z,27.60
2018-08-10T08:02:15.367Z,27.30
2018-08-10T08:04:43.962Z,27.10
2018-08-10T08:07:12.590Z,27.10
2018-08-10T08:09:41.189Z,26.90
2018-08-10T08:12:09.826Z,27.10
2018-08-10T08:14:38.425Z,27.50
2018-08-10T08:17:07.099Z,27.70
2018-08-10T08:19:35.805Z,28.10
2018-08-10T08:22:09.529Z,27.90
2018-08-10T08:24:39.160Z,27.70
2018-08-10T08:27:07.865Z,28.10
2018-08-10T08:29:36.958Z,28.70
2018-08-10T08:32:05.969Z,28.80
2018-08-10T08:34:34.638Z,29.20
2018-08-10T08:37:04.104Z,28.90
2018-08-10T08:40:36.181Z,29.00
2018-08-10T08:43:04.815Z,29.00
2018-08-10T08:46:08.828Z,28.70
2018-08-10T08:48:39.234Z,28.70
2018-08-10T08:51:10.018Z,29.20
2018-08-10T08:53:38.677Z,29.30
2018-08-10T08:56:11.705Z,28.90
2018-08-10T08:58:41.064Z,29.40
2018-08-10T09:01:10.030Z,29.30
2018-08-10T09:04:52.526Z,29.30
2018-08-10T09:07:21.153Z,29.70
2018-08-10T09:09:49.763Z,29.80
2018-08-10T09:12:18.618Z,30.00
2018-08-10T09:15:05.328Z,30.10
2018-08-10T09:17:34.093Z,30.00
2018-08-10T09:20:02.802Z,30.30
2018-08-10T09:22:31.609Z,30.40
2018-08-10T09:25:00.297Z,30.30
2018-08-10T09:27:28.879Z,30.50
2018-08-10T09:29:57.500Z,30.30
2018-08-10T09:32:26.074Z,30.30
2018-08-10T09:34:54.680Z,30.50
2018-08-10T09:37:23.285Z,30.60
2018-08-10T09:39:51.995Z,30.80
2018-08-10T09:42:20.594Z,30.90
2018-08-10T09:44:49.338Z,30.60
2018-08-10T09:47:17.928Z,30.70
2018-08-10T09:49:47.689Z,30.50
2018-08-10T09:52:16.445Z,30.40
2018-08-10T09:55:33.480Z,30.70
2018-08-10T09:58:05.401Z,30.60
2018-08-10T10:00:39.358Z,30.80
2018-08-10T10:03:13.975Z,30.40
2018-08-10T10:05:42.913Z,30.50
2018-08-10T10:08:11.603Z,30.80
2018-08-10T10:10:40.228Z,30.60
2018-08-10T10:13:08.883Z,30.50
2018-08-10T10:15:37.581Z,30.30
2018-08-10T10:18:08.057Z,30.60
2018-08-10T10:20:36.741Z,30.50
2018-08-10T10:23:05.573Z,30.70
2018-08-10T10:25:34.220Z,30.70
2018-08-10T10:28:02.891Z,30.50
2018-08-10T10:30:31.546Z,30.40
2018-08-10T10:33:00.213Z,30.30
2018-08-10T10:35:28.821Z,30.30
2018-08-10T10:37:57.397Z,30.30
2018-08-10T10:40:26.025Z,30.30
2018-08-10T10:42:54.599Z,30.50
2018-08-10T10:45:23.245Z,30.40
2018-08-10T10:47:51.838Z,30.20
2018-08-10T10:50:20.438Z,30.10
2018-08-10T10:52:49.081Z,29.90
2018-08-10T10:55:17.666Z,30.10
2018-08-10T10:57:46.305Z,30.30
2018-08-10T11:00:19.417Z,30.20
2018-08-10T11:02:48.788Z,29.90
2018-08-10T11:05:17.540Z,29.70
2018-08-10T11:07:46.216Z,29.80
2018-08-10T11:10:16.251Z,29.90
2018-08-10T11:12:44.873Z,29.90
2018-08-10T11:15:13.946Z,29.70
2018-08-10T11:17:42.558Z,29.60
2018-08-10T11:20:12.010Z,29.50
2018-08-10T11:22:41.301Z,29.30
2018-08-10T11:25:11.625Z,29.30
2018-08-10T11:27:40.485Z,29.40
2018-08-10T11:30:09.704Z,29.00
2018-08-10T11:32:38.469Z,29.00
2018-08-10T11:35:07.581Z,28.90
2018-08-10T11:37:36.297Z,28.90
2018-08-10T11:40:07.047Z,29.00
2018-08-10T11:42:35.676Z,28.80
2018-08-10T11:45:05.167Z,28.80
2018-08-10T11:47:33.725Z,28.80
2018-08-10T11:50:02.356Z,28.60
2018-08-10T11:52:30.993Z,28.50
2018-08-10T11:54:59.583Z,28.50
2018-08-10T11:58:12.484Z,28.70
2018-08-10T12:00:41.140Z,28.60
2018-08-10T12:03:09.737Z,28.50
2018-08-10T12:05:38.305Z,28.50
2018-08-10T12:08:07.013Z,28.50
2018-08-10T12:10:35.583Z,28.40
2018-08-10T12:13:04.178Z,28.10
2018-08-10T12:15:32.741Z,27.80
2018-08-10T12:18:01.361Z,28.00
2018-08-10T12:20:29.976Z,27.90
2018-08-10T12:22:58.590Z,28.00
2018-08-10T12:25:27.174Z,27.90
2018-08-10T12:27:55.793Z,27.90
2018-08-10T12:30:24.434Z,27.90
2018-08-10T12:32:53.050Z,27.90
2018-08-10T12:35:21.629Z,27.80
2018-08-10T12:37:50.271Z,27.70
2018-08-10T12:40:18.868Z,27.70
2018-08-10T12:42:47.511Z,27.70
2018-08-10T12:45:16.085Z,27.60
2018-08-10T12:47:44.893Z,27.60
2018-08-10T12:50:13.293Z,27.80
2018-08-10T12:52:41.909Z,27.60
2018-08-10T12:55:10.535Z,27.90
2018-08-10T12:57:39.130Z,27.90
2018-08-10T13:00:09.922Z,27.50
2018-08-10T13:02:38.516Z,27.50
2018-08-10T13:05:07.691Z,27.40
2018-08-10T13:07:36.462Z,27.60
2018-08-10T13:10:06.938Z,27.60
2018-08-10T13:12:35.522Z,27.50
2018-08-10T13:15:05.134Z,27.60
2018-08-10T13:17:33.746Z,27.50
2018-08-10T13:20:02.369Z,27.50
2018-08-10T13:22:31.029Z,27.60
2018-08-10T13:24:59.647Z,27.60
2018-08-10T13:27:28.207Z,27.50
2018-08-10T13:29:56.856Z,27.40
2018-08-10T13:32:25.426Z,27.60
2018-08-10T13:34:54.038Z,27.60
2018-08-10T13:37:22.693Z,27.20
2018-08-10T13:39:51.328Z,27.20
2018-08-10T13:42:19.998Z,27.40
2018-08-10T13:44:49.334Z,27.40
2018-08-10T13:47:17.922Z,27.50
2018-08-10T13:49:46.569Z,27.60
2018-08-10T13:52:15.258Z,27.60
2018-08-10T13:54:43.918Z,27.60
2018-08-10T13:57:12.546Z,27.70
2018-08-10T13:59:41.186Z,27.70
2018-08-10T14:02:09.977Z,27.60
2018-08-10T14:04:38.585Z,27.70
2018-08-10T14:07:07.274Z,27.90
2018-08-10T14:09:35.947Z,27.90
2018-08-10T14:12:04.616Z,28.00
2018-08-10T14:14:33.293Z,27.90
2018-08-10T14:17:01.947Z,27.90
2018-08-10T14:19:30.550Z,27.80
2018-08-10T14:21:59.138Z,27.60
2018-08-10T14:24:27.764Z,27.70
2018-08-10T14:26:56.349Z,27.40
2018-08-10T14:29:24.990Z,27.40
2018-08-10T14:31:53.578Z,27.60
2018-08-10T14:34:22.205Z,27.50
2018-08-10T14:36:50.817Z,27.40
2018-08-10T14:39:19.476Z,27.40
2018-08-10T14:41:48.115Z,27.60
2018-08-10T14:44:16.746Z,27.50
2018-08-10T14:46:45.378Z,27.50
2018-08-10T14:49:13.954Z,27.50
2018-08-10T14:51:42.595Z,27.40
2018-08-10T14:54:11.199Z,27.20
2018-08-10T14:56:39.800Z,27.20
2018-08-10T14:59:08.423Z,27.20
2018-08-10T15:01:37.029Z,27.30
2018-08-10T15:04:05.734Z,27.40
2018-08-10T15:06:34.360Z,27.40
2018-08-10T15:09:04.114Z,27.50
2018-08-10T15:11:32.722Z,27.50
2018-08-10T15:14:01.331Z,27.60
2018-08-10T15:16:29.930Z,27.60
2018-08-10T15:18:58.557Z,27.60
2018-08-10T15:21:27.165Z,27.60
2018-08-10T15:23:55.758Z,27.60
2018-08-10T15:26:24.347Z,27.50
2018-08-10T15:28:52.994Z,27.40
2018-08-10T15:31:21.623Z,27.50
2018-08-10T15:33:50.214Z,27.60
2018-08-10T15:36:20.235Z,27.50
2018-08-10T15:38:48.913Z,27.40
2018-08-10T15:41:17.926Z,27.40
2018-08-10T15:43:47.413Z,27.30
2018-08-10T15:46:16.584Z,27.10
2018-08-10T15:48:48.404Z,27.20
2018-08-10T15:51:18.277Z,27.30
2018-08-10T15:53:47.932Z,27.10
2018-08-10T15:56:18.601Z,27.20
2018-08-10T15:58:47.495Z,27.30
2018-08-10T16:01:16.215Z,27.30
2018-08-10T16:03:45.147Z,27.20
2018-08-10T16:06:13.802Z,27.20
2018-08-10T16:08:42.405Z,27.20
2018-08-10T16:11:11.036Z,27.10
2018-08-10T16:13:39.641Z,27.10
2018-08-10T16:16:08.410Z,27.00
2018-08-10T16:18:36.993Z,27.00
2018-08-10T16:21:05.673Z,27.10
2018-08-10T16:23:34.286Z,27.20
2018-08-10T16:26:03.005Z,27.10
2018-08-10T16:28:31.641Z,27.10
2018-08-10T16:31:00.298Z,27.10
2018-08-10T16:33:28.949Z,27.10
2018-08-10T16:35:57.571Z,27.10
2018-08-10T16:38:26.161Z,27.20
2018-08-10T16:40:54.741Z,27.10
2018-08-10T16:43:23.414Z,27.20
2018-08-10T16:45:52.022Z,27.10
2018-08-10T16:48:20.969Z,27.10
2018-08-10T16:50:49.609Z,27.20
2018-08-10T16:53:18.232Z,27.10
2018-08-10T16:55:46.851Z,27.00
2018-08-10T16:58:15.465Z,27.00
2018-08-10T17:00:44.053Z,26.80
2018-08-10T17:03:12.666Z,26.80
2018-08-10T17:05:41.264Z,26.80
2018-08-10T17:08:09.889Z,26.80
2018-08-10T17:10:38.545Z,26.80
2018-08-10T17:13:07.310Z,26.70
2018-08-10T17:15:35.883Z,26.60
2018-08-10T17:18:04.578Z,26.60
2018-08-10T17:20:33.189Z,26.70
2018-08-10T17:23:01.869Z,26.70
2018-08-10T17:25:30.501Z,26.60
2018-08-10T17:27:59.133Z,26.50
2018-08-10T17:30:27.763Z,26.40
2018-08-10T17:32:56.375Z,26.20
2018-08-10T17:35:24.951Z,26.20
2018-08-10T17:37:53.557Z,26.10
2018-08-10T17:40:22.184Z,26.10
2018-08-10T17:42:50.808Z,26.10
2018-08-10T17:45:19.457Z,26.00
2018-08-10T17:47:48.050Z,26.00
2018-08-10T17:50:18.902Z,25.90
2018-08-10T17:52:49.109Z,25.80
2018-08-10T17:55:18.216Z,25.90
2018-08-10T17:57:47.089Z,25.90
2018-08-10T18:00:20.309Z,25.70
2018-08-10T18:02:49.565Z,25.80
2018-08-10T18:05:18.792Z,25.80
2018-08-10T18:07:47.655Z,25.80
2018-08-10T18:10:17.247Z,25.60
2018-08-10T18:12:46.145Z,25.40
2018-08-10T18:15:16.924Z,25.00
2018-08-10T18:17:45.938Z,24.70
2018-08-10T18:20:17.659Z,24.50
2018-08-10T18:22:47.554Z,24.20
2018-08-10T18:25:17.565Z,24.00
2018-08-10T18:27:46.178Z,23.70
2018-08-10T18:30:19.702Z,23.60
2018-08-10T18:32:48.666Z,23.50
2018-08-10T18:35:17.321Z,23.30
2018-08-10T18:37:46.823Z,23.30
2018-08-10T18:40:16.333Z,23.30
2018-08-10T18:42:46.062Z,23.20
2018-08-10T18:45:18.849Z,23.10
2018-08-10T18:47:47.545Z,23.00
2018-08-10T18:50:17.136Z,22.90
2018-08-10T18:52:45.823Z,22.60
2018-08-10T18:55:17.001Z,22.50
2018-08-10T18:57:45.677Z,22.30
2018-08-10T19:00:16.273Z,22.10
2018-08-10T19:02:45.133Z,22.10
2018-08-10T19:05:14.801Z,22.00
2018-08-10T19:07:43.947Z,21.80
2018-08-10T19:10:17.124Z,21.90
2018-08-10T19:12:45.720Z,21.80
2018-08-10T19:15:14.430Z,21.50
2018-08-10T19:17:43.085Z,21.50
2018-08-10T19:20:12.412Z,21.60
2018-08-10T19:22:40.990Z,21.40
2018-08-10T19:25:11.399Z,21.50
2018-08-10T19:27:40.081Z,21.30
2018-08-10T19:30:12.369Z,21.30
2018-08-10T19:32:41.058Z,21.20
2018-08-10T19:35:09.790Z,21.10
2018-08-10T19:37:38.929Z,21.00
2018-08-10T19:40:09.614Z,20.90
2018-08-10T19:42:38.217Z,20.90
2018-08-10T19:45:07.932Z,20.90
2018-08-10T19:47:36.816Z,21.00
2018-08-10T19:50:06.070Z,20.90
2018-08-10T19:52:34.785Z,20.70
2018-08-10T19:55:03.566Z,20.40
2018-08-10T19:57:32.224Z,20.20
2018-08-10T20:00:00.857Z,20.00
2018-08-10T20:02:29.485Z,20.10
2018-08-10T20:04:58.099Z,19.90
2018-08-10T20:07:26.737Z,20.00
2018-08-10T20:09:55.336Z,19.90
2018-08-10T20:12:23.957Z,19.90
2018-08-10T20:14:52.532Z,19.60
2018-08-10T20:17:21.158Z,19.70
2018-08-10T20:19:49.765Z,19.70
2018-08-10T20:22:19.173Z,19.50
2018-08-10T20:24:49.201Z,19.40
2018-08-10T20:27:17.829Z,19.30
2018-08-10T20:29:46.502Z,19.20
2018-08-10T20:32:15.126Z,19.30
2018-08-10T20:34:43.725Z,19.30
2018-08-10T20:37:12.353Z,19.30
2018-08-10T20:39:40.973Z,19.20
2018-08-10T20:42:09.873Z,19.20
2018-08-10T20:44:38.517Z,19.10
2018-08-10T20:47:07.179Z,19.00
2018-08-10T20:49:35.758Z,19.00
2018-08-10T20:52:04.788Z,18.80
2018-08-10T20:54:33.427Z,18.60
2018-08-10T20:57:02.054Z,18.50
2018-08-10T20:59:30.615Z,18.40
2018-08-10T21:01:59.181Z,18.40
2018-08-10T21:04:27.828Z,18.40
2018-08-10T21:06:56.450Z,18.50
2018-08-10T21:09:25.046Z,18.50
2018-08-10T21:11:53.626Z,18.30
2018-08-10T21:14:22.234Z,18.40
2018-08-10T21:16:50.858Z,18.50
2018-08-10T21:19:19.479Z,18.30
2018-08-10T21:21:48.090Z,18.10
2018-08-10T21:24:16.690Z,18.30
2018-08-10T21:26:45.266Z,18.50
2018-08-10T21:29:13.913Z,18.50
2018-08-10T21:31:42.505Z,18.20
2018-08-10T21:34:11.129Z,18.00
2018-08-10T21:36:39.934Z,18.00
2018-08-10T21:39:10.669Z,18.00
2018-08-10T21:41:39.364Z,18.00
2018-08-10T21:44:08.274Z,17.90
2018-08-10T21:46:37.071Z,17.80
2018-08-10T21:49:05.905Z,17.80
2018-08-10T21:51:34.558Z,17.60
2018-08-10T21:54:03.414Z,17.60
2018-08-10T21:56:32.023Z,17.70
2018-08-10T21:59:00.728Z,17.80
2018-08-10T22:01:29.308Z,17.70
2018-08-10T22:03:57.904Z,17.60
2018-08-10T22:06:26.465Z,17.50
2018-08-10T22:08:55.065Z,17.50
2018-08-10T22:11:23.646Z,17.40
2018-08-10T22:13:57.444Z,17.40
2018-08-10T22:16:31.357Z,17.30
2018-08-10T22:19:05.168Z,17.30
2018-08-10T22:21:33.754Z,17.30
2018-08-10T22:24:02.492Z,17.40
2018-08-10T22:26:31.114Z,17.20
2018-08-10T22:28:59.765Z,17.00
2018-08-10T22:31:28.357Z,16.90
2018-08-10T22:33:56.999Z,16.90
2018-08-10T22:36:25.589Z,16.80
2018-08-10T22:38:54.218Z,16.80
2018-08-10T22:41:22.801Z,16.80
2018-08-10T22:43:51.427Z,16.80
2018-08-10T22:46:20.017Z,16.80
2018-08-10T22:48:49.507Z,16.60
2018-08-10T22:51:18.113Z,16.60
2018-08-10T22:53:46.706Z,16.70
2018-08-10T22:56:15.332Z,16.60
2018-08-10T22:58:43.925Z,16.60
2018-08-10T23:01:12.569Z,16.50
2018-08-10T23:03:41.189Z,16.40
2018-08-10T23:06:10.040Z,16.50
2018-08-10T23:08:38.814Z,16.40
2018-08-10T23:11:07.389Z,16.30
2018-08-10T23:13:35.998Z,16.40
2018-08-10T23:16:04.653Z,16.30
2018-08-10T23:18:33.312Z,16.30
2018-08-10T23:21:01.902Z,16.40
2018-08-10T23:23:30.507Z,16.30
2018-08-10T23:25:59.128Z,16.40
2018-08-10T23:28:27.749Z,16.30
2018-08-10T23:30:56.397Z,16.10
2018-08-10T23:33:25.013Z,16.30
2018-08-10T23:35:53.588Z,16.40
2018-08-10T23:38:22.178Z,16.40
2018-08-10T23:40:50.789Z,16.50
2018-08-10T23:43:19.394Z,16.50
2018-08-10T23:45:48.032Z,16.30
2018-08-10T23:48:16.661Z,16.20
2018-08-10T23:50:45.312Z,16.30
2018-08-10T23:53:13.903Z,16.10
2018-08-10T23:55:42.516Z,16.10
2018-08-10T23:58:11.251Z,15.90
